Palmyra, Missouri
Current Conditions -  °F | °C
As of 5:15 AM on Monday 22 Dec 2014 (Local Time) from KHAE Reporting Station
Overcast Overcast  
Wind Chill: 38°   Ceiling: 5000
Heat Index: 43°   Visibility: 10mi
Dew Point: 30°   Wind: 8mph
Humidity: 61%   Direction: 130°SE
Pressure: 29.76"   Gusts: NA
Location:  39.79°N, 91.52°W
Report Text: KHAE 221115Z AUTO 13007KT 10SM SCT037 OVC050 06/M01 A2976 RMK AO2
Loading
Personal Weather Stations






























Interactive Weather Map New forecast layout! Learn more

10-Day Weather Forecast

Advertisements
Track Severe Weather on mobile